sensor_id;sensor_type;location;lat;lon;timestamp;temperature;humidity
75130;HTU21D;63703;44.716;37.846;2022-12-29T00:01:31;1.13;78.70
75130;HTU21D;63703;44.716;37.846;2022-12-29T00:03:57;1.09;78.73
75130;HTU21D;63703;44.716;37.846;2022-12-29T00:06:24;1.07;78.76
75130;HTU21D;63703;44.716;37.846;2022-12-29T00:08:51;1.05;78.80
75130;HTU21D;63703;44.716;37.846;2022-12-29T00:11:19;1.04;78.82
75130;HTU21D;63703;44.716;37.846;2022-12-29T00:13:46;1.04;78.88
75130;HTU21D;63703;44.716;37.846;2022-12-29T00:16:32;1.02;78.88
75130;HTU21D;63703;44.716;37.846;2022-12-29T00:18:58;0.98;78.94
75130;HTU21D;63703;44.716;37.846;2022-12-29T00:21:25;0.95;78.98
75130;HTU21D;63703;44.716;37.846;2022-12-29T00:24:15;0.93;79.01
75130;HTU21D;63703;44.716;37.846;2022-12-29T00:29:36;0.89;79.10
75130;HTU21D;63703;44.716;37.846;2022-12-29T00:32:21;0.84;79.21
75130;HTU21D;63703;44.716;37.846;2022-12-29T00:35:06;0.76;79.22
75130;HTU21D;63703;44.716;37.846;2022-12-29T00:37:41;0.68;79.42
75130;HTU21D;63703;44.716;37.846;2022-12-29T00:40:26;0.62;79.54
75130;HTU21D;63703;44.716;37.846;2022-12-29T00:43:11;0.58;79.54
75130;HTU21D;63703;44.716;37.846;2022-12-29T00:45:55;0.54;79.50
75130;HTU21D;63703;44.716;37.846;2022-12-29T00:48:23;0.54;79.46
75130;HTU21D;63703;44.716;37.846;2022-12-29T00:51:08;0.59;79.40
75130;HTU21D;63703;44.716;37.846;2022-12-29T00:53:34;0.65;79.35
75130;HTU21D;63703;44.716;37.846;2022-12-29T00:56:00;0.73;79.25
75130;HTU21D;63703;44.716;37.846;2022-12-29T00:58:30;0.79;79.14
75130;HTU21D;63703;44.716;37.846;2022-12-29T01:01:03;0.81;79.10
75130;HTU21D;63703;44.716;37.846;2022-12-29T01:03:30;0.87;79.07
75130;HTU21D;63703;44.716;37.846;2022-12-29T01:05:56;0.93;79.03
75130;HTU21D;63703;44.716;37.846;2022-12-29T01:08:22;0.95;78.94
75130;HTU21D;63703;44.716;37.846;2022-12-29T01:11:01;0.96;78.90
75130;HTU21D;63703;44.716;37.846;2022-12-29T01:13:27;0.93;78.88
75130;HTU21D;63703;44.716;37.846;2022-12-29T01:15:54;0.93;78.88
75130;HTU21D;63703;44.716;37.846;2022-12-29T01:18:20;0.92;78.88
75130;HTU21D;63703;44.716;37.846;2022-12-29T01:20:47;0.94;78.82
75130;HTU21D;63703;44.716;37.846;2022-12-29T01:23:13;0.94;78.82
75130;HTU21D;63703;44.716;37.846;2022-12-29T01:25:39;0.94;78.79
75130;HTU21D;63703;44.716;37.846;2022-12-29T01:28:05;0.95;78.80
75130;HTU21D;63703;44.716;37.846;2022-12-29T01:30:36;0.95;78.74
75130;HTU21D;63703;44.716;37.846;2022-12-29T01:33:02;0.93;78.75
75130;HTU21D;63703;44.716;37.846;2022-12-29T01:35:29;0.90;78.75
75130;HTU21D;63703;44.716;37.846;2022-12-29T01:37:57;0.88;78.75
75130;HTU21D;63703;44.716;37.846;2022-12-29T01:40:23;0.84;78.75
75130;HTU21D;63703;44.716;37.846;2022-12-29T01:42:50;0.83;78.71
75130;HTU21D;63703;44.716;37.846;2022-12-29T01:45:17;0.82;78.70
75130;HTU21D;63703;44.716;37.846;2022-12-29T01:47:59;0.87;78.66
75130;HTU21D;63703;44.716;37.846;2022-12-29T01:50:41;0.87;78.62
75130;HTU21D;63703;44.716;37.846;2022-12-29T01:53:11;0.89;78.67
75130;HTU21D;63703;44.716;37.846;2022-12-29T01:55:44;0.92;78.63
75130;HTU21D;63703;44.716;37.846;2022-12-29T01:58:13;0.91;78.62
75130;HTU21D;63703;44.716;37.846;2022-12-29T02:00:40;0.89;78.66
75130;HTU21D;63703;44.716;37.846;2022-12-29T02:03:08;0.92;78.62
75130;HTU21D;63703;44.716;37.846;2022-12-29T02:05:42;0.93;78.55
75130;HTU21D;63703;44.716;37.846;2022-12-29T02:08:12;0.94;78.53
75130;HTU21D;63703;44.716;37.846;2022-12-29T02:10:39;0.94;78.49
75130;HTU21D;63703;44.716;37.846;2022-12-29T02:13:06;0.94;78.47
75130;HTU21D;63703;44.716;37.846;2022-12-29T02:18:44;0.98;78.33
75130;HTU21D;63703;44.716;37.846;2022-12-29T02:30:06;0.84;78.36
75130;HTU21D;63703;44.716;37.846;2022-12-29T02:43:59;0.84;78.49
75130;HTU21D;63703;44.716;37.846;2022-12-29T02:49:36;0.87;78.55
75130;HTU21D;63703;44.716;37.846;2022-12-29T02:52:11;0.89;78.67
75130;HTU21D;63703;44.716;37.846;2022-12-29T02:54:38;0.90;78.64
75130;HTU21D;63703;44.716;37.846;2022-12-29T02:59:40;0.91;78.66
75130;HTU21D;63703;44.716;37.846;2022-12-29T03:16:42;0.50;78.93
75130;HTU21D;63703;44.716;37.846;2022-12-29T03:19:36;0.47;78.97
75130;HTU21D;63703;44.716;37.846;2022-12-29T03:25:21;0.42;78.98
75130;HTU21D;63703;44.716;37.846;2022-12-29T03:27:52;0.38;79.01
75130;HTU21D;63703;44.716;37.846;2022-12-29T03:30:20;0.35;79.06
75130;HTU21D;63703;44.716;37.846;2022-12-29T03:33:00;0.33;79.08
75130;HTU21D;63703;44.716;37.846;2022-12-29T03:35:31;0.32;79.11
75130;HTU21D;63703;44.716;37.846;2022-12-29T03:40:33;0.40;79.11
75130;HTU21D;63703;44.716;37.846;2022-12-29T03:43:01;0.43;79.09
75130;HTU21D;63703;44.716;37.846;2022-12-29T03:45:30;0.42;79.16
75130;HTU21D;63703;44.716;37.846;2022-12-29T03:47:57;0.40;79.30
75130;HTU21D;63703;44.716;37.846;2022-12-29T03:50:23;0.47;79.36
75130;HTU21D;63703;44.716;37.846;2022-12-29T03:52:48;0.53;79.37
75130;HTU21D;63703;44.716;37.846;2022-12-29T03:55:15;0.59;79.37
75130;HTU21D;63703;44.716;37.846;2022-12-29T03:57:42;0.61;79.45
75130;HTU21D;63703;44.716;37.846;2022-12-29T04:00:13;0.61;79.49
75130;HTU21D;63703;44.716;37.846;2022-12-29T04:02:44;0.55;79.68
75130;HTU21D;63703;44.716;37.846;2022-12-29T04:05:15;0.46;79.61
75130;HTU21D;63703;44.716;37.846;2022-12-29T04:07:41;0.38;79.70
75130;HTU21D;63703;44.716;37.846;2022-12-29T04:10:07;0.35;79.75
75130;HTU21D;63703;44.716;37.846;2022-12-29T04:12:34;0.34;79.70
75130;HTU21D;63703;44.716;37.846;2022-12-29T04:15:01;0.33;79.67
75130;HTU21D;63703;44.716;37.846;2022-12-29T04:17:27;0.32;79.60
75130;HTU21D;63703;44.716;37.846;2022-12-29T04:19:53;0.30;79.59
75130;HTU21D;63703;44.716;37.846;2022-12-29T04:22:39;0.25;79.61
75130;HTU21D;63703;44.716;37.846;2022-12-29T04:25:06;0.21;79.62
75130;HTU21D;63703;44.716;37.846;2022-12-29T04:27:33;0.18;79.65
75130;HTU21D;63703;44.716;37.846;2022-12-29T04:30:34;0.14;79.67
75130;HTU21D;63703;44.716;37.846;2022-12-29T04:33:08;0.12;79.69
75130;HTU21D;63703;44.716;37.846;2022-12-29T04:35:34;0.07;79.69
75130;HTU21D;63703;44.716;37.846;2022-12-29T04:38:00;0.03;79.73
75130;HTU21D;63703;44.716;37.846;2022-12-29T04:40:26;0.03;79.74
75130;HTU21D;63703;44.716;37.846;2022-12-29T04:42:52;0.05;79.87
75130;HTU21D;63703;44.716;37.846;2022-12-29T04:45:20;0.16;80.11
75130;HTU21D;63703;44.716;37.846;2022-12-29T04:47:52;0.24;80.12
75130;HTU21D;63703;44.716;37.846;2022-12-29T04:50:29;0.28;80.14
75130;HTU21D;63703;44.716;37.846;2022-12-29T04:53:04;0.28;80.18
75130;HTU21D;63703;44.716;37.846;2022-12-29T04:55:33;0.25;80.21
75130;HTU21D;63703;44.716;37.846;2022-12-29T04:58:00;0.22;80.22
75130;HTU21D;63703;44.716;37.846;2022-12-29T05:00:28;0.22;80.20
75130;HTU21D;63703;44.716;37.846;2022-12-29T05:02:54;0.20;80.16
75130;HTU21D;63703;44.716;37.846;2022-12-29T05:05:20;0.24;80.14
75130;HTU21D;63703;44.716;37.846;2022-12-29T05:07:49;0.25;80.07
75130;HTU21D;63703;44.716;37.846;2022-12-29T05:10:16;0.28;80.06
75130;HTU21D;63703;44.716;37.846;2022-12-29T05:12:42;0.29;80.04
75130;HTU21D;63703;44.716;37.846;2022-12-29T05:15:10;0.31;80.03
75130;HTU21D;63703;44.716;37.846;2022-12-29T05:17:37;0.35;80.02
75130;HTU21D;63703;44.716;37.846;2022-12-29T05:20:04;0.40;80.01
75130;HTU21D;63703;44.716;37.846;2022-12-29T05:22:32;0.45;79.97
75130;HTU21D;63703;44.716;37.846;2022-12-29T05:24:58;0.48;79.96
75130;HTU21D;63703;44.716;37.846;2022-12-29T05:27:25;0.55;80.05
75130;HTU21D;63703;44.716;37.846;2022-12-29T05:30:07;0.69;80.04
75130;HTU21D;63703;44.716;37.846;2022-12-29T05:32:33;0.77;80.03
75130;HTU21D;63703;44.716;37.846;2022-12-29T05:34:59;0.82;80.03
75130;HTU21D;63703;44.716;37.846;2022-12-29T05:37:25;0.91;80.01
75130;HTU21D;63703;44.716;37.846;2022-12-29T05:39:51;0.97;79.93
75130;HTU21D;63703;44.716;37.846;2022-12-29T05:42:17;1.03;79.88
75130;HTU21D;63703;44.716;37.846;2022-12-29T05:45:07;1.08;79.83
75130;HTU21D;63703;44.716;37.846;2022-12-29T05:47:50;1.10;79.83
75130;HTU21D;63703;44.716;37.846;2022-12-29T05:50:34;1.11;79.84
75130;HTU21D;63703;44.716;37.846;2022-12-29T05:53:12;1.13;79.84
75130;HTU21D;63703;44.716;37.846;2022-12-29T05:55:38;1.17;79.81
75130;HTU21D;63703;44.716;37.846;2022-12-29T05:58:05;1.20;79.76
75130;HTU21D;63703;44.716;37.846;2022-12-29T06:00:31;1.24;79.70
75130;HTU21D;63703;44.716;37.846;2022-12-29T06:02:58;1.28;79.66
75130;HTU21D;63703;44.716;37.846;2022-12-29T06:05:25;1.32;79.62
75130;HTU21D;63703;44.716;37.846;2022-12-29T06:07:51;1.36;79.56
75130;HTU21D;63703;44.716;37.846;2022-12-29T06:10:17;1.41;79.54
75130;HTU21D;63703;44.716;37.846;2022-12-29T06:12:51;1.48;79.49
75130;HTU21D;63703;44.716;37.846;2022-12-29T06:15:18;1.57;79.45
75130;HTU21D;63703;44.716;37.846;2022-12-29T06:17:46;1.68;79.40
75130;HTU21D;63703;44.716;37.846;2022-12-29T06:20:12;1.80;79.31
75130;HTU21D;63703;44.716;37.846;2022-12-29T06:22:38;1.88;79.24
75130;HTU21D;63703;44.716;37.846;2022-12-29T06:25:05;1.97;79.21
75130;HTU21D;63703;44.716;37.846;2022-12-29T06:27:33;2.12;79.15
75130;HTU21D;63703;44.716;37.846;2022-12-29T06:29:59;2.23;79.01
75130;HTU21D;63703;44.716;37.846;2022-12-29T06:32:26;2.34;78.94
75130;HTU21D;63703;44.716;37.846;2022-12-29T06:34:55;2.44;78.88
75130;HTU21D;63703;44.716;37.846;2022-12-29T06:37:21;2.54;78.82
75130;HTU21D;63703;44.716;37.846;2022-12-29T06:39:47;2.61;78.77
75130;HTU21D;63703;44.716;37.846;2022-12-29T06:42:14;2.71;78.75
75130;HTU21D;63703;44.716;37.846;2022-12-29T06:44:59;2.80;78.72
75130;HTU21D;63703;44.716;37.846;2022-12-29T06:47:26;2.87;78.77
75130;HTU21D;63703;44.716;37.846;2022-12-29T06:49:52;2.97;78.75
75130;HTU21D;63703;44.716;37.846;2022-12-29T06:52:17;3.08;78.69
75130;HTU21D;63703;44.716;37.846;2022-12-29T06:54:43;3.18;78.63
75130;HTU21D;63703;44.716;37.846;2022-12-29T06:57:09;3.31;78.55
75130;HTU21D;63703;44.716;37.846;2022-12-29T06:59:35;3.45;78.49
75130;HTU21D;63703;44.716;37.846;2022-12-29T07:02:01;3.60;78.42
75130;HTU21D;63703;44.716;37.846;2022-12-29T07:04:28;3.76;78.37
75130;HTU21D;63703;44.716;37.846;2022-12-29T07:06:55;3.91;78.26
75130;HTU21D;63703;44.716;37.846;2022-12-29T07:09:20;4.08;78.18
75130;HTU21D;63703;44.716;37.846;2022-12-29T07:11:47;4.22;78.04
75130;HTU21D;63703;44.716;37.846;2022-12-29T07:14:13;4.34;77.96
75130;HTU21D;63703;44.716;37.846;2022-12-29T07:16:39;4.48;77.88
75130;HTU21D;63703;44.716;37.846;2022-12-29T07:19:05;4.59;77.72
75130;HTU21D;63703;44.716;37.846;2022-12-29T07:21:31;4.64;77.46
75130;HTU21D;63703;44.716;37.846;2022-12-29T07:23:57;4.65;77.51
75130;HTU21D;63703;44.716;37.846;2022-12-29T07:26:23;4.72;77.50
75130;HTU21D;63703;44.716;37.846;2022-12-29T07:28:50;4.82;77.42
75130;HTU21D;63703;44.716;37.846;2022-12-29T07:31:19;5.02;77.31
75130;HTU21D;63703;44.716;37.846;2022-12-29T07:33:46;5.26;77.11
75130;HTU21D;63703;44.716;37.846;2022-12-29T07:36:13;5.61;76.84
75130;HTU21D;63703;44.716;37.846;2022-12-29T07:38:40;5.94;76.43
75130;HTU21D;63703;44.716;37.846;2022-12-29T07:41:07;6.16;76.11
75130;HTU21D;63703;44.716;37.846;2022-12-29T07:43:33;6.31;75.47
75130;HTU21D;63703;44.716;37.846;2022-12-29T07:46:18;6.39;75.50
75130;HTU21D;63703;44.716;37.846;2022-12-29T07:48:44;6.54;75.34
75130;HTU21D;63703;44.716;37.846;2022-12-29T07:51:10;6.72;75.13
75130;HTU21D;63703;44.716;37.846;2022-12-29T07:53:36;6.90;74.94
75130;HTU21D;63703;44.716;37.846;2022-12-29T07:56:02;7.26;74.74
75130;HTU21D;63703;44.716;37.846;2022-12-29T07:58:28;7.60;74.39
75130;HTU21D;63703;44.716;37.846;2022-12-29T08:00:55;7.94;74.02
75130;HTU21D;63703;44.716;37.846;2022-12-29T08:03:21;8.09;73.35
75130;HTU21D;63703;44.716;37.846;2022-12-29T08:05:48;8.19;72.78
75130;HTU21D;63703;44.716;37.846;2022-12-29T08:08:14;8.14;72.17
75130;HTU21D;63703;44.716;37.846;2022-12-29T08:10:40;7.99;72.03
75130;HTU21D;63703;44.716;37.846;2022-12-29T08:13:06;7.94;71.90
75130;HTU21D;63703;44.716;37.846;2022-12-29T08:15:32;8.01;71.91
75130;HTU21D;63703;44.716;37.846;2022-12-29T08:17:58;8.20;71.54
75130;HTU21D;63703;44.716;37.846;2022-12-29T08:20:24;8.32;69.34
75130;HTU21D;63703;44.716;37.846;2022-12-29T08:22:50;8.50;69.04
75130;HTU21D;63703;44.716;37.846;2022-12-29T08:25:16;8.88;69.05
75130;HTU21D;63703;44.716;37.846;2022-12-29T08:27:42;9.15;67.68
75130;HTU21D;63703;44.716;37.846;2022-12-29T08:30:09;9.22;66.39
75130;HTU21D;63703;44.716;37.846;2022-12-29T08:32:35;9.49;66.17
75130;HTU21D;63703;44.716;37.846;2022-12-29T08:35:01;9.69;64.34
75130;HTU21D;63703;44.716;37.846;2022-12-29T08:37:27;9.80;63.68
75130;HTU21D;63703;44.716;37.846;2022-12-29T08:39:53;10.07;63.30
75130;HTU21D;63703;44.716;37.846;2022-12-29T08:42:19;10.40;62.50
75130;HTU21D;63703;44.716;37.846;2022-12-29T08:44:45;10.69;61.48
75130;HTU21D;63703;44.716;37.846;2022-12-29T08:47:11;10.81;60.22
75130;HTU21D;63703;44.716;37.846;2022-12-29T08:49:37;10.92;58.50
75130;HTU21D;63703;44.716;37.846;2022-12-29T08:52:03;10.85;58.74
75130;HTU21D;63703;44.716;37.846;2022-12-29T08:54:29;10.79;59.32
75130;HTU21D;63703;44.716;37.846;2022-12-29T08:56:55;10.81;59.63
75130;HTU21D;63703;44.716;37.846;2022-12-29T08:59:26;10.66;59.01
75130;HTU21D;63703;44.716;37.846;2022-12-29T09:01:52;10.48;59.56
75130;HTU21D;63703;44.716;37.846;2022-12-29T09:04:18;10.24;58.24
75130;HTU21D;63703;44.716;37.846;2022-12-29T09:06:45;10.36;59.54
75130;HTU21D;63703;44.716;37.846;2022-12-29T09:09:11;10.83;59.10
75130;HTU21D;63703;44.716;37.846;2022-12-29T09:11:37;11.25;58.54
75130;HTU21D;63703;44.716;37.846;2022-12-29T09:14:03;11.46;55.73
75130;HTU21D;63703;44.716;37.846;2022-12-29T09:16:29;11.58;55.26
75130;HTU21D;63703;44.716;37.846;2022-12-29T09:18:55;11.59;54.33
75130;HTU21D;63703;44.716;37.846;2022-12-29T09:21:21;11.48;54.82
75130;HTU21D;63703;44.716;37.846;2022-12-29T09:23:48;11.56;54.92
75130;HTU21D;63703;44.716;37.846;2022-12-29T09:26:14;11.85;54.19
75130;HTU21D;63703;44.716;37.846;2022-12-29T09:28:40;12.02;53.79
75130;HTU21D;63703;44.716;37.846;2022-12-29T09:31:07;12.32;54.32
75130;HTU21D;63703;44.716;37.846;2022-12-29T09:33:32;12.27;53.19
75130;HTU21D;63703;44.716;37.846;2022-12-29T09:36:01;11.82;53.59
75130;HTU21D;63703;44.716;37.846;2022-12-29T09:38:28;11.98;52.80
75130;HTU21D;63703;44.716;37.846;2022-12-29T09:41:00;11.85;52.89
75130;HTU21D;63703;44.716;37.846;2022-12-29T09:43:43;11.38;51.79
75130;HTU21D;63703;44.716;37.846;2022-12-29T09:46:17;10.86;53.56
75130;HTU21D;63703;44.716;37.846;2022-12-29T09:48:48;10.62;53.91
75130;HTU21D;63703;44.716;37.846;2022-12-29T09:51:18;10.38;54.11
75130;HTU21D;63703;44.716;37.846;2022-12-29T09:53:53;10.09;54.87
75130;HTU21D;63703;44.716;37.846;2022-12-29T09:56:23;9.83;55.61
75130;HTU21D;63703;44.716;37.846;2022-12-29T10:04:11;9.16;57.01
75130;HTU21D;63703;44.716;37.846;2022-12-29T10:09:34;8.87;57.71
75130;HTU21D;63703;44.716;37.846;2022-12-29T10:17:54;9.07;59.40
75130;HTU21D;63703;44.716;37.846;2022-12-29T10:20:43;10.63;55.91
75130;HTU21D;63703;44.716;37.846;2022-12-29T10:23:30;11.05;52.87
75130;HTU21D;63703;44.716;37.846;2022-12-29T10:25:59;10.28;55.26
75130;HTU21D;63703;44.716;37.846;2022-12-29T10:28:46;9.80;54.33
75130;HTU21D;63703;44.716;37.846;2022-12-29T10:31:20;9.53;56.30
75130;HTU21D;63703;44.716;37.846;2022-12-29T10:33:49;9.95;55.33
75130;HTU21D;63703;44.716;37.846;2022-12-29T10:36:38;10.78;52.48
75130;HTU21D;63703;44.716;37.846;2022-12-29T10:42:13;9.76;54.52
75130;HTU21D;63703;44.716;37.846;2022-12-29T10:44:41;9.49;55.61
75130;HTU21D;63703;44.716;37.846;2022-12-29T10:47:13;9.31;54.66
75130;HTU21D;63703;44.716;37.846;2022-12-29T10:49:42;9.10;54.20
75130;HTU21D;63703;44.716;37.846;2022-12-29T10:52:09;8.95;54.26
75130;HTU21D;63703;44.716;37.846;2022-12-29T10:54:54;8.83;54.69
75130;HTU21D;63703;44.716;37.846;2022-12-29T10:57:36;8.76;55.45
75130;HTU21D;63703;44.716;37.846;2022-12-29T11:00:13;8.76;54.51
75130;HTU21D;63703;44.716;37.846;2022-12-29T11:08:03;10.09;52.85
75130;HTU21D;63703;44.716;37.846;2022-12-29T11:10:39;11.84;49.28
75130;HTU21D;63703;44.716;37.846;2022-12-29T11:13:18;11.11;47.54
75130;HTU21D;63703;44.716;37.846;2022-12-29T11:15:47;10.35;50.82
75130;HTU21D;63703;44.716;37.846;2022-12-29T11:20:57;9.68;52.07
75130;HTU21D;63703;44.716;37.846;2022-12-29T11:23:40;11.00;49.56
75130;HTU21D;63703;44.716;37.846;2022-12-29T11:26:21;10.79;49.15
75130;HTU21D;63703;44.716;37.846;2022-12-29T11:31:44;9.81;49.84
75130;HTU21D;63703;44.716;37.846;2022-12-29T11:34:34;9.64;51.16
75130;HTU21D;63703;44.716;37.846;2022-12-29T11:37:54;10.35;50.50
75130;HTU21D;63703;44.716;37.846;2022-12-29T11:40:18;11.33;47.72
75130;HTU21D;63703;44.716;37.846;2022-12-29T11:42:54;10.73;48.34
75130;HTU21D;63703;44.716;37.846;2022-12-29T11:45:22;10.42;50.07
75130;HTU21D;63703;44.716;37.846;2022-12-29T11:47:52;10.38;49.71
75130;HTU21D;63703;44.716;37.846;2022-12-29T11:50:25;10.40;49.39
75130;HTU21D;63703;44.716;37.846;2022-12-29T11:53:01;11.85;45.47
75130;HTU21D;63703;44.716;37.846;2022-12-29T11:55:29;12.80;45.11
75130;HTU21D;63703;44.716;37.846;2022-12-29T11:57:58;13.83;42.74
75130;HTU21D;63703;44.716;37.846;2022-12-29T12:00:27;14.72;39.63
75130;HTU21D;63703;44.716;37.846;2022-12-29T12:03:02;15.76;40.01
75130;HTU21D;63703;44.716;37.846;2022-12-29T12:05:46;16.77;38.67
75130;HTU21D;63703;44.716;37.846;2022-12-29T12:10:54;18.26;33.63
75130;HTU21D;63703;44.716;37.846;2022-12-29T12:13:29;18.44;33.11
75130;HTU21D;63703;44.716;37.846;2022-12-29T12:16:40;18.20;34.22
75130;HTU21D;63703;44.716;37.846;2022-12-29T12:18:57;15.99;36.60
75130;HTU21D;63703;44.716;37.846;2022-12-29T12:21:40;14.72;38.62
75130;HTU21D;63703;44.716;37.846;2022-12-29T12:26:45;14.65;39.27
75130;HTU21D;63703;44.716;37.846;2022-12-29T12:29:23;14.11;38.98
75130;HTU21D;63703;44.716;37.846;2022-12-29T12:35:03;14.32;39.20
75130;HTU21D;63703;44.716;37.846;2022-12-29T12:43:43;15.63;36.77
75130;HTU21D;63703;44.716;37.846;2022-12-29T12:57:30;14.89;39.04
75130;HTU21D;63703;44.716;37.846;2022-12-29T13:00:04;14.94;38.83
75130;HTU21D;63703;44.716;37.846;2022-12-29T13:02:59;15.21;37.05
75130;HTU21D;63703;44.716;37.846;2022-12-29T13:12:01;11.76;42.23
75130;HTU21D;63703;44.716;37.846;2022-12-29T13:25:22;9.16;48.52
75130;HTU21D;63703;44.716;37.846;2022-12-29T13:36:32;8.19;50.12
75130;HTU21D;63703;44.716;37.846;2022-12-29T13:41:37;7.89;50.24
75130;HTU21D;63703;44.716;37.846;2022-12-29T13:44:11;7.77;50.94
75130;HTU21D;63703;44.716;37.846;2022-12-29T13:46:44;7.65;51.21
75130;HTU21D;63703;44.716;37.846;2022-12-29T13:49:18;7.55;51.15
75130;HTU21D;63703;44.716;37.846;2022-12-29T13:51:56;7.43;52.01
75130;HTU21D;63703;44.716;37.846;2022-12-29T13:57:48;7.32;52.97
75130;HTU21D;63703;44.716;37.846;2022-12-29T13:59:57;7.27;53.30
75130;HTU21D;63703;44.716;37.846;2022-12-29T14:07:57;7.23;53.82
75130;HTU21D;63703;44.716;37.846;2022-12-29T14:10:45;7.13;54.04
75130;HTU21D;63703;44.716;37.846;2022-12-29T14:13:23;7.07;54.35
75130;HTU21D;63703;44.716;37.846;2022-12-29T14:15:58;7.12;54.86
75130;HTU21D;63703;44.716;37.846;2022-12-29T14:18:25;7.11;54.86
75130;HTU21D;63703;44.716;37.846;2022-12-29T14:21:20;7.11;55.55
75130;HTU21D;63703;44.716;37.846;2022-12-29T14:23:50;7.07;55.54
75130;HTU21D;63703;44.716;37.846;2022-12-29T14:30:01;7.08;56.86
75130;HTU21D;63703;44.716;37.846;2022-12-29T14:32:02;7.02;56.91
75130;HTU21D;63703;44.716;37.846;2022-12-29T14:34:30;6.99;57.42
75130;HTU21D;63703;44.716;37.846;2022-12-29T14:36:59;6.98;57.61
75130;HTU21D;63703;44.716;37.846;2022-12-29T14:39:31;7.00;58.01
75130;HTU21D;63703;44.716;37.846;2022-12-29T14:44:49;7.04;58.19
75130;HTU21D;63703;44.716;37.846;2022-12-29T14:49:45;7.01;57.61
75130;HTU21D;63703;44.716;37.846;2022-12-29T14:52:25;7.05;56.84
75130;HTU21D;63703;44.716;37.846;2022-12-29T14:57:49;7.05;57.07
75130;HTU21D;63703;44.716;37.846;2022-12-29T15:00:18;7.08;57.00
75130;HTU21D;63703;44.716;37.846;2022-12-29T15:02:49;7.09;57.11
75130;HTU21D;63703;44.716;37.846;2022-12-29T15:05:30;7.09;57.22
75130;HTU21D;63703;44.716;37.846;2022-12-29T15:07:58;7.04;57.39
75130;HTU21D;63703;44.716;37.846;2022-12-29T15:10:26;7.09;56.77
75130;HTU21D;63703;44.716;37.846;2022-12-29T15:13:03;7.07;56.63
75130;HTU21D;63703;44.716;37.846;2022-12-29T15:15:36;7.04;56.68
75130;HTU21D;63703;44.716;37.846;2022-12-29T15:18:23;7.05;56.71
75130;HTU21D;63703;44.716;37.846;2022-12-29T15:21:12;7.03;56.66
75130;HTU21D;63703;44.716;37.846;2022-12-29T15:23:42;7.03;56.64
75130;HTU21D;63703;44.716;37.846;2022-12-29T15:26:09;7.03;56.62
75130;HTU21D;63703;44.716;37.846;2022-12-29T15:28:43;7.07;56.91
75130;HTU21D;63703;44.716;37.846;2022-12-29T15:31:24;7.12;57.19
75130;HTU21D;63703;44.716;37.846;2022-12-29T15:34:00;7.12;57.43
75130;HTU21D;63703;44.716;37.846;2022-12-29T15:36:29;7.05;57.87
75130;HTU21D;63703;44.716;37.846;2022-12-29T15:38:55;7.05;58.23
75130;HTU21D;63703;44.716;37.846;2022-12-29T15:41:34;7.07;58.69
75130;HTU21D;63703;44.716;37.846;2022-12-29T15:44:35;7.07;58.83
75130;HTU21D;63703;44.716;37.846;2022-12-29T15:47:13;7.09;58.87
75130;HTU21D;63703;44.716;37.846;2022-12-29T15:49:48;7.10;58.77
75130;HTU21D;63703;44.716;37.846;2022-12-29T15:52:20;7.15;58.70
75130;HTU21D;63703;44.716;37.846;2022-12-29T15:54:49;7.17;58.69
75130;HTU21D;63703;44.716;37.846;2022-12-29T15:59:50;7.22;58.59
75130;HTU21D;63703;44.716;37.846;2022-12-29T16:02:16;7.27;58.54
75130;HTU21D;63703;44.716;37.846;2022-12-29T16:04:42;7.31;58.49
75130;HTU21D;63703;44.716;37.846;2022-12-29T16:07:30;7.37;59.06
75130;HTU21D;63703;44.716;37.846;2022-12-29T16:09:58;7.39;59.24
75130;HTU21D;63703;44.716;37.846;2022-12-29T16:12:31;7.42;59.54
75130;HTU21D;63703;44.716;37.846;2022-12-29T16:15:00;7.43;59.38
75130;HTU21D;63703;44.716;37.846;2022-12-29T16:17:29;7.45;59.30
75130;HTU21D;63703;44.716;37.846;2022-12-29T16:20:23;7.47;60.19
75130;HTU21D;63703;44.716;37.846;2022-12-29T16:22:57;7.44;61.02
75130;HTU21D;63703;44.716;37.846;2022-12-29T16:25:25;7.46;61.46
75130;HTU21D;63703;44.716;37.846;2022-12-29T16:27:53;7.48;61.67
75130;HTU21D;63703;44.716;37.846;2022-12-29T16:30:53;7.45;61.72
75130;HTU21D;63703;44.716;37.846;2022-12-29T16:33:32;7.49;62.53
75130;HTU21D;63703;44.716;37.846;2022-12-29T16:36:01;7.49;62.07
75130;HTU21D;63703;44.716;37.846;2022-12-29T16:38:33;7.49;62.50
75130;HTU21D;63703;44.716;37.846;2022-12-29T16:41:02;7.48;62.62
75130;HTU21D;63703;44.716;37.846;2022-12-29T16:43:35;7.49;63.25
75130;HTU21D;63703;44.716;37.846;2022-12-29T16:46:27;7.52;63.88
75130;HTU21D;63703;44.716;37.846;2022-12-29T16:48:55;7.53;63.09
75130;HTU21D;63703;44.716;37.846;2022-12-29T16:51:33;7.58;60.29
75130;HTU21D;63703;44.716;37.846;2022-12-29T16:54:01;7.62;59.84
75130;HTU21D;63703;44.716;37.846;2022-12-29T16:56:31;7.67;59.09
75130;HTU21D;63703;44.716;37.846;2022-12-29T16:59:05;7.67;58.90
75130;HTU21D;63703;44.716;37.846;2022-12-29T17:01:34;7.70;58.41
75130;HTU21D;63703;44.716;37.846;2022-12-29T17:04:08;7.73;57.96
75130;HTU21D;63703;44.716;37.846;2022-12-29T17:06:34;7.78;57.54
75130;HTU21D;63703;44.716;37.846;2022-12-29T17:09:02;7.79;56.98
75130;HTU21D;63703;44.716;37.846;2022-12-29T17:11:31;7.79;57.58
75130;HTU21D;63703;44.716;37.846;2022-12-29T17:19:58;7.82;58.40
75130;HTU21D;63703;44.716;37.846;2022-12-29T17:22:27;7.70;59.26
75130;HTU21D;63703;44.716;37.846;2022-12-29T17:24:57;7.60;59.73
75130;HTU21D;63703;44.716;37.846;2022-12-29T17:27:41;7.62;59.20
75130;HTU21D;63703;44.716;37.846;2022-12-29T17:30:13;7.63;59.22
75130;HTU21D;63703;44.716;37.846;2022-12-29T17:32:40;7.65;58.89
75130;HTU21D;63703;44.716;37.846;2022-12-29T17:35:13;7.67;58.41
75130;HTU21D;63703;44.716;37.846;2022-12-29T17:37:39;7.64;58.58
75130;HTU21D;63703;44.716;37.846;2022-12-29T17:40:09;7.68;58.84
75130;HTU21D;63703;44.716;37.846;2022-12-29T17:42:42;7.68;59.11
75130;HTU21D;63703;44.716;37.846;2022-12-29T17:45:13;7.67;59.13
75130;HTU21D;63703;44.716;37.846;2022-12-29T17:47:40;7.65;58.83
75130;HTU21D;63703;44.716;37.846;2022-12-29T17:50:20;7.67;58.01
75130;HTU21D;63703;44.716;37.846;2022-12-29T17:52:52;7.70;57.12
75130;HTU21D;63703;44.716;37.846;2022-12-29T17:55:21;7.68;56.95
75130;HTU21D;63703;44.716;37.846;2022-12-29T17:57:48;7.69;56.59
75130;HTU21D;63703;44.716;37.846;2022-12-29T18:00:22;7.65;56.85
75130;HTU21D;63703;44.716;37.846;2022-12-29T18:02:48;7.64;57.01
75130;HTU21D;63703;44.716;37.846;2022-12-29T18:05:24;7.70;57.03
75130;HTU21D;63703;44.716;37.846;2022-12-29T18:07:52;7.67;57.84
75130;HTU21D;63703;44.716;37.846;2022-12-29T18:10:20;7.68;58.03
75130;HTU21D;63703;44.716;37.846;2022-12-29T18:12:48;7.69;58.54
75130;HTU21D;63703;44.716;37.846;2022-12-29T18:15:21;7.67;58.18
75130;HTU21D;63703;44.716;37.846;2022-12-29T18:17:47;7.65;57.84
75130;HTU21D;63703;44.716;37.846;2022-12-29T18:20:14;7.64;57.96